METAR AND TAF INFORMATION
METAR FOR LFSD
ADDS - METARS form results

(0145 UTC 23 October 2018)
Data provider http://aviationweather.gov/metar/data/
 
METAR text: LFSD 230130Z AUTO 36009KT CAVOK 10/07 Q1030
Conditions at: LFSD (DIJON/LONGVIC(FA, FR) observed 0130 UTC 23 October 2018
Temperature: 10.0°C (50°F)
Dewpoint: 7.0°C (45°F) [RH = 82%]
Pressure (altimeter): 30.41 inches Hg (1030.0 mb)
Winds: from the N (360 degrees) at 10 MPH (9 knots; 4.6 m/s)
Visibility: 6 or more miles (10+ km)
Ceiling: ceiling and visibility are OK
Clouds: unknown
Weather: no significant weather observed at this time

METAR text: LFSD 230100Z AUTO 36010KT CAVOK 10/07 Q1030
Conditions at: LFSD (DIJON/LONGVIC(FA, FR) observed 0100 UTC 23 October 2018
Temperature: 10.0°C (50°F)
Dewpoint: 7.0°C (45°F) [RH = 82%]
Pressure (altimeter): 30.41 inches Hg (1030.0 mb)
Winds: from the N (360 degrees) at 12 MPH (10 knots; 5.1 m/s)
Visibility: 6 or more miles (10+ km)
Ceiling: ceiling and visibility are OK
Clouds: unknown
Weather: no significant weather observed at this time

 AIRPORT MAP

 RUNWAY INFORMATION
Runway 02 Runway length 5905 ft Runway width 118 ft
Runway elevation 719 ft Runway displaced threshold 0 ft Runway heading 15
Runway 20 Runway length 5905 ft Runway width 118 ft
Runway elevation 728 ft Runway displaced threshold 0 ft Runway heading 195
Runway 18 Runway length 7874 ft Runway width 148 ft
Runway elevation 726 ft Runway displaced threshold 0 ft Runway heading 175
Runway 36 Runway length 7874 ft Runway width 148 ft
Runway elevation 710 ft Runway displaced threshold 0 ft Runway heading 355

 AIRPORT FREQUENCIES
Type A/D Name DIJON APP Frequency 142.45 MHZ
Type AFIS Name DIJON INFO Frequency 118.325 MHZ
Type GND Name DIJON GND Frequency 122.1 MHZ
Type TWR Name DIJON TWR Frequency 118.325 MHZ

 AIRPORT NEAR NAVIGATION AIDS
Type TACAN Name Dijon Frequency 113500 KHZ
Type VOR-DME Name Dijon Frequency 111450 KHZ



Powered by Virtual Airlines Manager [v2.6.2]